FW4454 Weather Reports


time (UTC)temp
C
wind
direction
speed
KPH
gust
KPH
rain 1hr
cm
rain 24hr
cm
rain mn
cm
humidity
%
barometer
mb
20191016063316 8 202 3.2 4.8 0.00 0.18 0.00 94 1011.8
20191016062316 8 202 4.8 8.0 0.00 0.18 0.00 94 1011.7
20191016061316 8 180 8.0 12.9 0.00 0.18 0.00 94 1011.5
20191016060316 8 180 8.0 12.9 0.00 0.18 0.00 94 1011.5
20191016055317 8 202 4.8 6.4 0.00 0.18 0.00 94 1011.4
20191016054336 8 202 4.8 9.7 0.00 0.18 0.00 94 1011.3
20191016053316 8 202 4.8 11.3 0.00 0.18 0.00 94 1011.3
20191016052316 8 180 8.0 12.9 0.00 0.18 0.00 94 1011.3
20191016051316 8 225 6.4 9.7 0.00 0.18 0.00 94 1011.3
20191016050317 8 135 4.8 9.7 0.00 0.18 0.00 94 1011.3
20191016045316 8 157 3.2 6.4 0.00 0.18 0.00 94 1011.2
20191016044316 8 225 3.2 4.8 0.00 0.18 0.00 94 1011.1
20191016043316 8 225 4.8 6.4 0.00 0.18 0.00 94 1011.1
20191016042316 8 180 4.8 8.0 0.00 0.18 0.00 94 1011.0
20191016041316 9 247 4.8 11.3 0.00 0.18 0.00 94 1011.0
20191016040316 9 225 8.0 12.9 0.00 0.18 0.00 94 1011.0
20191016035316 9 225 6.4 11.3 0.00 0.18 0.00 94 1010.9
20191016034317 9 247 8.0 16.1 0.00 0.18 0.00 94 1010.9
20191016033316 9 225 8.0 14.5 0.00 0.18 0.00 95 1010.7
20191016032316 9 247 4.8 8.0 0.00 0.18 0.00 95 1010.7
20191016031316 9 247 9.7 14.5 0.00 0.18 0.00 95 1010.8
20191016030316 9 202 8.0 12.9 0.00 0.18 0.00 95 1010.8
20191016025316 9 225 9.7 14.5 0.00 0.18 0.00 95 1010.8
20191016024316 9 225 6.4 12.9 0.00 0.18 0.00 96 1010.8
20191016023316 9 225 8.0 12.9 0.00 0.18 0.00 96 1010.7
20191016022316 9 225 6.4 8.0 0.00 0.18 0.00 96 1010.8
20191016021316 9 225 4.8 12.9 0.00 0.18 0.00 96 1010.9
20191016020316 9 225 8.0 14.5 0.00 0.18 0.00 96 1010.9
20191016015316 10 225 4.8 8.0 0.00 0.18 0.00 96 1010.9
20191016014316 10 225 4.8 8.0 0.00 0.18 0.00 96 1010.9
20191016013316 10 225 6.4 11.3 0.00 0.18 0.00 96 1010.9
20191016012316 10 202 4.8 6.4 0.00 0.18 0.00 96 1010.9
20191016011316 10 225 4.8 8.0 0.00 0.18 0.00 96 1010.8
20191016010316 10 225 4.8 9.7 0.00 0.18 0.00 96 1010.7
20191016005316 10 225 3.2 4.8 0.00 0.18 0.00 96 1010.7
20191016004316 10 247 3.2 8.0 0.00 0.18 0.00 96 1010.6
20191016003316 9 247 3.2 4.8 0.00 0.18 0.00 95 1010.6
20191016002316 9 225 3.2 6.4 0.00 0.18 0.00 95 1010.5
20191016001316 9 247 4.8 6.4 0.00 0.18 0.00 95 1010.6
20191016000316 9 225 6.4 11.3 0.00 0.18 0.00 95 1010.6
20191015235316 10 225 4.8 8.0 0.00 0.18 0.00 95 1010.4
20191015234318 10 247 4.8 9.7 0.00 0.18 0.00 95 1010.5
20191015233316 10 247 6.4 9.7 0.00 0.18 0.00 95 1010.5
20191015232316 10 247 6.4 8.0 0.00 0.18 0.00 95 1010.2
20191015231316 10 225 6.4 17.7 0.00 0.18 0.00 95 1010.1
20191015230316 10 225 4.8 9.7 0.00 0.18 0.00 95 1010.3
20191015225315 10 202 3.2 8.0 0.00 0.18 0.00 95 1010.3
20191015224316 10 225 1.6 6.4 0.00 0.18 0.00 96 1010.1
20191015223316 10 0.0 0.0 0.00 0.18 0.00 96 1009.9
20191015222316 10 270 1.6 6.4 0.00 0.18 0.00 96 1009.8
20191015221315 10 225 4.8 11.3 0.00 0.18 0.00 96 1009.5
20191015220316 10 180 6.4 12.9 0.00 0.18 0.00 96 1009.6
20191015215316 10 225 6.4 9.7 0.00 0.18 0.18 96 1009.4
20191015214316 10 247 9.7 17.7 0.00 0.18 0.18 95 1009.3
20191015213316 11 202 9.7 19.3 0.00 0.18 0.18 96 1009.4
20191015212316 11 247 12.9 22.5 0.00 0.18 0.18 96 1009.4
20191015211316 11 202 1.6 6.4 0.00 0.15 0.15 96 1009.2
20191015210316 11 225 3.2 4.8 0.00 0.15 0.15 96 1009.2
20191015205316 11 180 3.2 6.4 0.00 0.15 0.15 96 1009.1
20191015204316 11 180 3.2 6.4 0.00 0.15 0.15 96 1008.9
20191015203316 11 202 1.6 3.2 0.00 0.15 0.15 96 1008.8
20191015202316 11 0.0 3.2 0.03 0.15 0.15 96 1008.8
20191015201316 11 0.0 1.6 0.03 0.15 0.15 96 1008.6
20191015200316 11 0.0 0.0 0.00 0.13 0.13 96 1008.4
20191015195316 11 0.0 0.0 0.00 0.13 0.13 96 1008.3
20191015194316 11 0.0 0.0 0.03 0.13 0.13 96 1008.3
20191015193316 11 0.0 0.0 0.03 0.13 0.13 96 1008.3
20191015192316 11 0.0 0.0 0.00 0.10 0.10 96 1008.2
20191015191315 12 0.0 0.0 0.00 0.10 0.10 96 1008.0
20191015190315 12 0.0 3.2 0.00 0.10 0.10 95 1008.2
20191015185316 12 225 4.8 6.4 0.00 0.10 0.10 95 1008.2
20191015184315 12 225 1.6 4.8 0.00 0.08 0.08 95 1008.0
20191015183315 12 225 1.6 3.2 0.00 0.08 0.08 95 1007.6
20191015182316 12 247 3.2 4.8 0.00 0.08 0.08 95 1007.7
20191015181315 12 0.0 1.6 0.00 0.08 0.08 95 1007.7
20191015180315 12 225 1.6 3.2 0.00 0.08 0.08 95 1007.7
20191015175316 12 0.0 1.6 0.00 0.08 0.08 95 1007.5
20191015174315 12 247 1.6 4.8 0.00 0.08 0.08 94 1007.4
20191015173316 12 225 4.8 8.0 0.00 0.08 0.08 94 1007.2
20191015172315 12 0.0 1.6 0.00 0.08 0.08 94 1006.9
20191015171315 12 225 1.6 3.2 0.03 0.08 0.08 93 1006.8
20191015170317 12 225 1.6 3.2 0.05 0.08 0.08 93 1006.8
20191015165317 12 247 3.2 4.8 0.08 0.08 0.08 93 1006.6
20191015164317 12 0.0 0.0 0.08 0.08 0.08 92 1006.4
20191015163317 13 0.0 0.0 0.08 0.08 0.08 92 1006.3
20191015162317 13 0.0 0.0 0.08 0.08 0.08 92 1006.3
20191015161317 13 0.0 0.0 0.05 0.05 0.05 92 1006.4
20191015160318 13 0.0 0.0 0.03 0.03 0.03 91 1006.4
20191015155317 13 0.0 0.0 0.00 0.00 0.00 90 1006.3
20191015154317 13 247 1.6 3.2 0.00 0.00 0.00 89 1006.3
20191015153317 14 0.0 0.0 0.00 0.00 0.00 88 1006.3
20191015152317 14 0.0 1.6 0.00 0.00 0.00 86 1006.3
20191015151317 14 0.0 0.0 0.00 0.00 0.00 84 1006.3
20191015150317 14 0.0 0.0 0.00 0.00 0.00 84 1006.2
20191015145317 15 0.0 1.6 0.00 0.00 0.00 84 1006.0
20191015144317 15 0.0 0.0 0.00 0.00 0.00 83 1006.0
20191015143318 15 0.0 1.6 0.00 0.00 0.00 82 1006.1
20191015142317 15 0.0 1.6 0.00 0.00 0.00 82 1006.1
20191015141317 15 0.0 1.6 0.00 0.00 0.00 82 1006.2
20191015140317 15 337 3.2 6.4 0.00 0.00 0.00 81 1006.1
20191015135317 15 247 4.8 9.7 0.00 0.00 0.00 81 1006.3
20191015134317 15 0.0 1.6 0.00 0.00 0.00 80 1006.4
20191015133317 16 247 1.6 6.4 0.00 0.00 0.00 80 1006.4
20191015132317 16 225 1.6 4.8 0.00 0.00 0.00 79 1006.4
20191015131317 16 225 4.8 12.9 0.00 0.00 0.00 77 1006.2
20191015130317 16 202 1.6 4.8 0.00 0.00 0.00 77 1006.2
20191015125317 16 0 1.6 6.4 0.00 0.00 0.00 76 1006.3
20191015124317 17 247 3.2 4.8 0.00 0.00 0.00 76 1006.1
20191015123317 17 247 1.6 3.2 0.00 0.00 0.00 75 1006.2
20191015122317 17 247 3.2 6.4 0.00 0.00 0.00 74 1006.3
20191015121317 17 247 1.6 4.8 0.00 0.00 0.00 73 1006.4
20191015120317 18 225 1.6 3.2 0.00 0.00 0.00 74 1006.4
20191015115317 18 225 4.8 9.7 0.00 0.00 0.00 73 1006.4
20191015114317 18 225 1.6 8.0 0.00 0.00 0.00 74 1006.5
20191015113317 18 225 6.4 11.3 0.00 0.00 0.00 76 1006.5
20191015112317 18 0.0 1.6 0.00 0.00 0.00 77 1006.9
20191015111317 18 247 1.6 6.4 0.00 0.00 0.00 77 1007.0
20191015110317 18 157 3.2 8.0 0.00 0.00 0.00 77 1007.1
20191015105317 18 180 4.8 9.7 0.00 0.00 0.00 75 1007.0
20191015104317 18 157 8.0 16.1 0.00 0.00 0.00 75 1007.1
20191015103317 18 180 3.2 6.4 0.00 0.00 0.00 76 1007.0
20191015102317 18 180 3.2 4.8 0.00 0.00 0.00 77 1007.0
20191015101317 18 180 3.2 6.4 0.00 0.00 0.00 76 1007.0
20191015100317 18 157 6.4 12.9 0.00 0.00 0.00 74 1006.9
20191015095317 18 180 1.6 3.2 0.00 0.00 0.00 74 1006.8
20191015094317 18 202 4.8 8.0 0.00 0.00 0.00 74 1006.9
20191015093316 19 180 4.8 9.7 0.00 0.00 0.00 72 1007.0
20191015092317 19 180 8.0 14.5 0.00 0.00 0.00 73 1007.1
20191015091317 20 135 4.8 8.0 0.00 0.00 0.00 71 1007.0
20191015090316 20 157 6.4 9.7 0.00 0.00 0.00 73 1006.9
20191015085317 20 157 4.8 8.0 0.00 0.00 0.00 73 1006.9
20191015084317 19 157 3.2 8.0 0.00 0.00 0.00 75 1006.8
20191015083317 18 157 4.8 8.0 0.00 0.00 0.00 76 1006.6
20191015082317 18 180 1.6 3.2 0.00 0.00 0.00 78 1006.6
20191015081317 17 0.0 1.6 0.00 0.00 0.00 79 1006.7
20191015080317 17 0.0 0.0 0.00 0.00 0.00 81 1006.7
20191015075316 16 0.0 0.0 0.00 0.00 0.00 85 1006.8
20191015074316 16 0.0 1.6 0.00 0.00 0.00 85 1006.9
20191015073316 16 135 3.2 4.8 0.00 0.00 0.00 83 1006.8
20191015072317 16 112 3.2 4.8 0.00 0.00 0.00 83 1006.6
20191015071317 16 0.0 1.6 0.00 0.00 0.00 84 1006.7
20191015070317 16 0.0 1.6 0.00 0.00 0.00 82 1006.6
20191015065316 16 157 1.6 3.2 0.00 0.00 0.00 83 1006.6
20191015064317 16 157 3.2 3.2 0.00 0.00 0.00 83 1006.6